CheckWX is a tool to help pilots better visualize weather data.  It is not intended as a substitute for an official pre-flight weather briefing.

20:12:01 UTC

KBWP METAR
Harry Stern Airport
Wahpeton, North Dakota, USA
Current

17 mins ago

KBWP 231955Z AUTO 21013G17KT 10SM CLR 20/00 A2998 RMK AO1
Observed
Apr-23 @ 19:55 UTC
Wind
  • 210° at 13 KTS
  • Gusting to 17 KTS
Visibility
10 SM
Flight Rules
VFR
Cloud Levels
  • Clear skies
Temperature
20°C / 68°F
Dewpoint
C / 32°F
Humidity
26%
Altimeter
29.98" Hg
Pressure
1015.22 hPa
Previous

37 mins ago

KBWP 231935Z AUTO 21012G19KT 10SM CLR 20/00 A2999 RMK AO1
Observed
Apr-23 @ 19:35 UTC
Wind
  • 210° at 12 KTS
  • Gusting to 19 KTS
Visibility
10 SM
Flight Rules
VFR
Cloud Levels
  • Clear skies
Temperature
20°C / 68°F
Dewpoint
C / 32°F
Humidity
26%
Altimeter
29.99" Hg
Pressure
1015.62 hPa
Previous

57 mins ago

KBWP 231915Z AUTO 22010G15KT 10SM CLR 19/00 A3000 RMK AO1
Observed
Apr-23 @ 19:15 UTC
Wind
  • 220° at 10 KTS
  • Gusting to 15 KTS
Visibility
10 SM
Flight Rules
VFR
Cloud Levels
  • Clear skies
Temperature
19°C / 66°F
Dewpoint
C / 32°F
Humidity
28%
Altimeter
30" Hg
Pressure
1015.92 hPa